Sweet Debbie — WDJ6958 — position and weather

sailwx.info

Track history (hours):
 
Tides and Currents Weather Stations Pressure Air Temp Water Temp Dewpoint Dewpoint Depression Visibility Wind Speed Wind Dir Waves Ship Positions

Sweet Debbie

Owner: Ritzler, Michael W, Deerfield Beach, FL. More information available from US FCC via Universal Licensing System and Coast Guard Vessel Documentation Center.

Last reported at 2018-Feb-15 17:03 UTC. Time now 2018-Feb-22 23:04 UTC.
Position N 25°36' W 080°07'.

Length 30 m.

Type: Pleasure craft. MMSI: 368001880.

Date/timePositionNaut miles runAvg speedWind from/ knotsBaromVisibWave heightAir tempDewpointWater temp
2018-Feb-15 17:03N 25°36' W 080°07'120.6
2018-Feb-15 17:00N 25°37' W 080°07'814.6
2018-Feb-15 16:29N 25°45' W 080°06'715.5
2018-Feb-15 16:00N 25°52' W 080°06'816.7
2018-Feb-15 15:30N 26°00' W 080°05'917.0
2018-Feb-15 15:00N 26°09' W 080°05'713.8
2018-Feb-15 14:30N 26°16' W 080°05'3 5.6
2018-Feb-15 13:57N 26°19' W 080°05'1 1.2
2018-Feb-15 13:20N 26°20' W 080°05'  
Track history (hours):
 
Tides and Currents Weather Stations Pressure Air Temp Water Temp Dewpoint Dewpoint Depression Visibility Wind Speed Wind Dir Waves Ship Positions

Sweet Debbie

Owner: Ritzler, Michael W, Deerfield Beach, FL. More information available from US FCC via Universal Licensing System and Coast Guard Vessel Documentation Center.

Last reported at 2018-Feb-15 17:03 UTC. Time now 2018-Feb-22 23:04 UTC.
Position N 25°36' W 080°07'.

Length 30 m.

Type: Pleasure craft. MMSI: 368001880.

Date/timePositionNaut miles runAvg speedWind from/ knotsBaromVisibWave heightAir tempDewpointWater temp
2018-Feb-15 17:03N 25°36' W 080°07'120.6
2018-Feb-15 17:00N 25°37' W 080°07'814.6
2018-Feb-15 16:29N 25°45' W 080°06'715.5
2018-Feb-15 16:00N 25°52' W 080°06'816.7
2018-Feb-15 15:30N 26°00' W 080°05'917.0
2018-Feb-15 15:00N 26°09' W 080°05'713.8
2018-Feb-15 14:30N 26°16' W 080°05'3 5.6
2018-Feb-15 13:57N 26°19' W 080°05'1 1.2
2018-Feb-15 13:20N 26°20' W 080°05'  

Dump ship's entire track history